createdAt,value
2022-11-15T00:00:04.912Z,1004.44
2022-11-15T00:00:41.307Z,1004.44
2022-11-15T00:01:07.485Z,1004.33
2022-11-15T00:01:47.134Z,1004.33
2022-11-15T00:02:17.447Z,1004.44
2022-11-15T00:02:40.217Z,1004.13
2022-11-15T00:03:03.983Z,1004.13
2022-11-15T00:03:37.845Z,1004.13
2022-11-15T00:04:09.251Z,1004.44
2022-11-15T00:04:41.385Z,1004.44
2022-11-15T00:05:11.329Z,1004.33
2022-11-15T00:05:48.396Z,1004.33
2022-11-15T00:06:17.361Z,1004.23
2022-11-15T00:06:40.195Z,1004.33
2022-11-15T00:07:03.527Z,1004.33
2022-11-15T00:07:54.212Z,1004.33
2022-11-15T00:08:10.147Z,1004.44
2022-11-15T00:08:41.813Z,1004.44
2022-11-15T00:09:11.437Z,1004.44
2022-11-15T00:09:46.068Z,1004.44
2022-11-15T00:10:17.248Z,1004.33
2022-11-15T00:10:39.814Z,1004.44
2022-11-15T00:11:03.529Z,1004.44
2022-11-15T00:11:37.524Z,1004.44
2022-11-15T00:12:09.312Z,1004.33
2022-11-15T00:12:41.294Z,1004.33
2022-11-15T00:13:11.500Z,1004.44
2022-11-15T00:13:45.221Z,1004.44
2022-11-15T00:14:17.543Z,1004.23
2022-11-15T00:14:40.369Z,1004.54
2022-11-15T00:15:03.918Z,1004.54
2022-11-15T00:15:37.437Z,1004.54
2022-11-15T00:16:09.915Z,1004.13
2022-11-15T00:16:41.137Z,1004.13
2022-11-15T00:17:12.056Z,1004.44
2022-11-15T00:17:45.530Z,1004.44
2022-11-15T00:18:17.933Z,1004.23
2022-11-15T00:18:40.707Z,1004.23
2022-11-15T00:19:03.144Z,1004.23
2022-11-15T00:19:37.185Z,1004.23
2022-11-15T00:20:09.199Z,1004.23
2022-11-15T00:20:41.328Z,1004.23
2022-11-15T00:21:11.412Z,1004.44
2022-11-15T00:21:46.288Z,1004.44
2022-11-15T00:22:17.203Z,1004.44
2022-11-15T00:22:39.982Z,1004.33
2022-11-15T00:23:04.954Z,1004.33
2022-11-15T00:23:37.357Z,1004.33
2022-11-15T00:24:09.295Z,1004.13
2022-11-15T00:24:42.125Z,1004.13
2022-11-15T00:25:12.083Z,1004.23
2022-11-15T00:25:45.179Z,1004.23
2022-11-15T00:26:18.926Z,1004.23
2022-11-15T00:26:41.793Z,1004.33
2022-11-15T00:27:07.855Z,1004.33
2022-11-15T00:27:37.289Z,1004.33
2022-11-15T00:28:09.166Z,1004.33
2022-11-15T00:28:41.227Z,1004.33
2022-11-15T00:29:12.246Z,1004.33
2022-11-15T00:29:46.087Z,1004.33
2022-11-15T00:30:17.511Z,1004.23
2022-11-15T00:30:40.205Z,1004.23
2022-11-15T00:31:02.763Z,1004.23
2022-11-15T00:31:37.431Z,1004.23
2022-11-15T00:32:09.407Z,1004.13
2022-11-15T00:32:41.066Z,1004.13
2022-11-15T00:33:12.295Z,1004.13
2022-11-15T00:33:45.358Z,1004.13
2022-11-15T00:34:17.698Z,1004.23
2022-11-15T00:34:40.630Z,1004.23
2022-11-15T00:35:02.809Z,1004.23
2022-11-15T00:35:37.385Z,1004.23
2022-11-15T00:36:09.177Z,1003.93
2022-11-15T00:36:42.616Z,1003.93
2022-11-15T00:37:11.810Z,1004.23
2022-11-15T00:37:46.184Z,1004.23
2022-11-15T00:38:17.275Z,1004.13
2022-11-15T00:38:39.976Z,1004.13
2022-11-15T00:39:03.210Z,1004.13
2022-11-15T00:39:37.279Z,1004.13
2022-11-15T00:40:09.390Z,1004.23
2022-11-15T00:40:41.313Z,1004.23
2022-11-15T00:41:12.171Z,1004.33
2022-11-15T00:41:45.696Z,1004.33
2022-11-15T00:42:17.849Z,1003.93
2022-11-15T00:42:40.552Z,1004.23
2022-11-15T00:43:03.590Z,1004.23
2022-11-15T00:43:38.202Z,1004.23
2022-11-15T00:44:11.236Z,1004.13
2022-11-15T00:44:41.717Z,1004.13
2022-11-15T00:45:13.080Z,1003.93
2022-11-15T00:45:46.327Z,1003.93
2022-11-15T00:46:22.605Z,1004.13
2022-11-15T00:46:39.791Z,1003.93
2022-11-15T00:47:02.116Z,1003.93
2022-11-15T00:47:37.307Z,1003.93
2022-11-15T00:48:09.885Z,1004.23
2022-11-15T00:48:41.065Z,1004.23
2022-11-15T00:49:15.297Z,1003.93
2022-11-15T00:49:45.310Z,1003.93
2022-11-15T00:50:17.841Z,1004.03
2022-11-15T00:50:40.461Z,1004.03
2022-11-15T00:51:02.838Z,1004.03
2022-11-15T00:51:37.768Z,1004.03
2022-11-15T00:52:09.141Z,1003.93
2022-11-15T00:52:41.784Z,1003.93
2022-11-15T00:53:11.567Z,1004.23
2022-11-15T00:53:46.058Z,1004.23
2022-11-15T00:54:17.592Z,1003.93
2022-11-15T00:54:40.208Z,1004.03
2022-11-15T00:55:03.117Z,1004.03
2022-11-15T00:55:37.809Z,1004.03
2022-11-15T00:56:10.911Z,1004.13
2022-11-15T00:56:43.187Z,1004.13
2022-11-15T00:57:13.819Z,1004.13
2022-11-15T00:57:45.889Z,1004.13
2022-11-15T00:58:18.090Z,1004.03
2022-11-15T00:58:40.635Z,1003.93
2022-11-15T00:59:05.631Z,1003.93
2022-11-15T00:59:41.682Z,1003.93
2022-11-15T01:00:10.154Z,1003.93
2022-11-15T01:00:41.277Z,1003.93
2022-11-15T01:01:11.751Z,1003.83
2022-11-15T01:01:45.554Z,1003.83
2022-11-15T01:02:17.164Z,1003.93
2022-11-15T01:02:39.937Z,1003.93
2022-11-15T01:03:02.764Z,1003.93
2022-11-15T01:03:37.585Z,1003.93
2022-11-15T01:04:09.918Z,1004.13
2022-11-15T01:04:41.213Z,1004.13
2022-11-15T01:05:11.427Z,1003.93
2022-11-15T01:05:45.148Z,1003.93
2022-11-15T01:06:19.893Z,1003.72
2022-11-15T01:06:41.051Z,1003.72
2022-11-15T01:07:03.594Z,1003.72
2022-11-15T01:07:37.547Z,1003.72
2022-11-15T01:08:09.794Z,1003.83
2022-11-15T01:08:41.896Z,1003.83
2022-11-15T01:09:11.909Z,1003.93
2022-11-15T01:09:45.620Z,1003.93
2022-11-15T01:10:17.361Z,1003.72
2022-11-15T01:10:40.046Z,1003.93
2022-11-15T01:11:02.704Z,1003.93
2022-11-15T01:11:38.897Z,1003.93
2022-11-15T01:12:10.034Z,1003.62
2022-11-15T01:12:41.013Z,1003.62
2022-11-15T01:13:11.852Z,1003.93
2022-11-15T01:13:45.040Z,1003.93
2022-11-15T01:14:21.434Z,1003.72
2022-11-15T01:14:40.114Z,1003.72
2022-11-15T01:15:02.831Z,1003.72
2022-11-15T01:15:42.050Z,1003.72
2022-11-15T01:16:09.380Z,1003.72
2022-11-15T01:16:41.320Z,1003.72
2022-11-15T01:17:11.411Z,1003.52
2022-11-15T01:17:45.174Z,1003.52
2022-11-15T01:18:17.627Z,1003.62
2022-11-15T01:18:40.071Z,1003.62
2022-11-15T01:19:03.767Z,1003.62
2022-11-15T01:19:37.369Z,1003.62
2022-11-15T01:20:12.961Z,1003.72
2022-11-15T01:20:35.563Z,1003.72
2022-11-15T01:21:11.610Z,1003.83
2022-11-15T01:21:45.158Z,1003.83
2022-11-15T01:22:17.172Z,1003.62
2022-11-15T01:22:40.527Z,1003.72
2022-11-15T01:23:02.760Z,1003.72
2022-11-15T01:23:37.019Z,1003.72
2022-11-15T01:24:09.152Z,1003.42
2022-11-15T01:24:41.715Z,1003.42
2022-11-15T01:25:09.036Z,1003.52
2022-11-15T01:25:45.586Z,1003.52
2022-11-15T01:26:17.578Z,1003.42
2022-11-15T01:26:40.453Z,1003.32
2022-11-15T01:27:02.929Z,1003.32
2022-11-15T01:27:38.257Z,1003.32
2022-11-15T01:28:09.117Z,1003.62
2022-11-15T01:28:41.332Z,1003.62
2022-11-15T01:29:11.572Z,1003.62
2022-11-15T01:29:45.773Z,1003.62
2022-11-15T01:30:17.725Z,1003.62
2022-11-15T01:30:39.843Z,1003.42
2022-11-15T01:31:03.463Z,1003.42
2022-11-15T01:31:37.625Z,1003.42
2022-11-15T01:32:09.234Z,1003.62
2022-11-15T01:32:41.251Z,1003.62
2022-11-15T01:33:12.931Z,1003.42
2022-11-15T01:33:45.326Z,1003.42
2022-11-15T01:34:17.106Z,1003.62
2022-11-15T01:34:39.948Z,1003.52
2022-11-15T01:35:02.264Z,1003.52
2022-11-15T01:35:37.678Z,1003.52
2022-11-15T01:36:09.348Z,1003.62
2022-11-15T01:36:42.339Z,1003.62
2022-11-15T01:37:15.933Z,1003.42
2022-11-15T01:37:45.361Z,1003.42
2022-11-15T01:38:23.867Z,1003.62
2022-11-15T01:38:40.055Z,1003.42
2022-11-15T01:39:03.576Z,1003.42
2022-11-15T01:39:37.203Z,1003.42
2022-11-15T01:40:11.046Z,1003.52
2022-11-15T01:40:41.217Z,1003.52
2022-11-15T01:41:12.613Z,1003.42
2022-11-15T01:41:45.860Z,1003.42
2022-11-15T01:42:17.489Z,1003.62
2022-11-15T01:42:39.941Z,1003.72
2022-11-15T01:43:03.399Z,1003.72
2022-11-15T01:43:38.278Z,1003.72
2022-11-15T01:44:11.122Z,1003.52
2022-11-15T01:44:42.817Z,1003.62
2022-11-15T01:45:14.801Z,1003.62
2022-11-15T01:45:45.624Z,1003.62
2022-11-15T01:46:17.004Z,1003.62
2022-11-15T01:46:43.249Z,1003.52
2022-11-15T01:47:03.911Z,1003.52
2022-11-15T01:47:37.507Z,1003.52
2022-11-15T01:48:09.553Z,1003.62
2022-11-15T01:48:41.202Z,1003.62
2022-11-15T01:49:12.143Z,1003.62
2022-11-15T01:49:45.082Z,1003.62
2022-11-15T01:50:17.565Z,1003.62
2022-11-15T01:50:39.798Z,1003.52
2022-11-15T01:51:02.559Z,1003.52
2022-11-15T01:51:37.134Z,1003.52
2022-11-15T01:52:09.168Z,1003.52
2022-11-15T01:52:41.004Z,1003.52
2022-11-15T01:53:11.775Z,1003.83
2022-11-15T01:53:45.784Z,1003.83
2022-11-15T01:54:17.057Z,1003.52
2022-11-15T01:54:39.739Z,1003.42
2022-11-15T01:55:02.405Z,1003.42
2022-11-15T01:55:38.266Z,1003.42
2022-11-15T01:56:09.685Z,1003.52
2022-11-15T01:56:41.457Z,1003.52
2022-11-15T01:57:14.799Z,1003.62
2022-11-15T01:57:45.058Z,1003.62
2022-11-15T01:58:17.954Z,1003.62
2022-11-15T01:58:40.644Z,1003.62
2022-11-15T01:59:03.138Z,1003.62
2022-11-15T01:59:39.536Z,1003.32
2022-11-15T02:00:09.780Z,1003.32
2022-11-15T02:00:41.343Z,1003.32
2022-11-15T02:01:11.614Z,1003.52
2022-11-15T02:01:47.217Z,1003.42
2022-11-15T02:02:17.095Z,1003.42
2022-11-15T02:02:39.797Z,1003.42
2022-11-15T02:03:02.800Z,1003.42
2022-11-15T02:03:37.982Z,1003.42
2022-11-15T02:04:09.625Z,1003.42
2022-11-15T02:04:41.307Z,1003.42
2022-11-15T02:05:11.420Z,1003.42
2022-11-15T02:05:45.149Z,1003.42
2022-11-15T02:06:17.352Z,1003.42
2022-11-15T02:06:40.468Z,1003.62
2022-11-15T02:07:02.944Z,1003.62
2022-11-15T02:07:37.294Z,1003.62
2022-11-15T02:08:09.178Z,1003.22
2022-11-15T02:08:43.621Z,1003.32
2022-11-15T02:09:14.244Z,1003.32
2022-11-15T02:09:46.001Z,1003.32
2022-11-15T02:10:17.414Z,1003.22
2022-11-15T02:10:40.024Z,1003.32
2022-11-15T02:11:02.562Z,1003.32
2022-11-15T02:11:37.241Z,1003.32
2022-11-15T02:12:11.685Z,1003.32
2022-11-15T02:12:41.149Z,1003.32
2022-11-15T02:13:12.132Z,1003.32
2022-11-15T02:13:45.130Z,1003.32
2022-11-15T02:14:18.347Z,1003.32
2022-11-15T02:14:41.081Z,1003.42
2022-11-15T02:15:03.879Z,1003.42
2022-11-15T02:15:40.689Z,1003.42
2022-11-15T02:16:09.233Z,1003.52
2022-11-15T02:16:42.677Z,1003.52
2022-11-15T02:17:13.048Z,1003.32
2022-11-15T02:17:45.213Z,1003.32
2022-11-15T02:18:17.125Z,1003.32
2022-11-15T02:18:39.750Z,1003.32
2022-11-15T02:19:02.267Z,1003.32
2022-11-15T02:19:37.097Z,1003.32
2022-11-15T02:20:09.945Z,1003.42
2022-11-15T02:20:41.407Z,1003.42
2022-11-15T02:21:13.549Z,1003.32
2022-11-15T02:21:45.802Z,1003.32
2022-11-15T02:22:17.445Z,1003.52
2022-11-15T02:22:40.165Z,1003.32
2022-11-15T02:23:02.609Z,1003.32
2022-11-15T02:23:38.145Z,1003.32
2022-11-15T02:24:09.202Z,1003.32
2022-11-15T02:24:42.645Z,1003.32
2022-11-15T02:25:13.629Z,1003.22
2022-11-15T02:25:45.396Z,1003.22
2022-11-15T02:26:17.344Z,1003.22
2022-11-15T02:26:39.871Z,1003.22
2022-11-15T02:27:03.304Z,1003.22
2022-11-15T02:27:37.309Z,1003.22
2022-11-15T02:28:09.180Z,1003.11
2022-11-15T02:28:42.634Z,1003.11
2022-11-15T02:29:11.481Z,1003.42
2022-11-15T02:29:45.348Z,1003.42
2022-11-15T02:30:17.354Z,1003.42
2022-11-15T02:30:39.958Z,1003.32
2022-11-15T02:31:02.434Z,1003.32
2022-11-15T02:31:37.111Z,1003.32
2022-11-15T02:32:08.993Z,1003.11
2022-11-15T02:32:41.567Z,1003.11
2022-11-15T02:33:13.346Z,1003.22
2022-11-15T02:33:45.473Z,1003.22
2022-11-15T02:34:17.079Z,1003.32
2022-11-15T02:34:39.797Z,1003.52
2022-11-15T02:35:02.243Z,1003.52
2022-11-15T02:35:37.269Z,1003.52
2022-11-15T02:36:09.168Z,1003.32
2022-11-15T02:36:42.597Z,1003.32
2022-11-15T02:39:40.784Z,1003.11
2022-11-15T02:40:03.290Z,1003.11
2022-11-15T02:40:41.857Z,1003.11
2022-11-15T02:41:11.357Z,1003.22
2022-11-15T02:41:45.014Z,1003.22
2022-11-15T02:42:17.377Z,1003.42
2022-11-15T02:42:41.101Z,1003.42
2022-11-15T02:43:07.923Z,1003.42
2022-11-15T02:43:37.077Z,1003.42
2022-11-15T02:44:09.238Z,1003.32
2022-11-15T02:44:41.003Z,1003.32
2022-11-15T02:45:11.575Z,1003.42
2022-11-15T02:45:45.018Z,1003.42
2022-11-15T02:46:17.132Z,1003.32
2022-11-15T02:46:40.418Z,1003.32
2022-11-15T02:47:03.073Z,1003.32
2022-11-15T02:47:37.127Z,1003.32
2022-11-15T02:48:09.262Z,1003.01
2022-11-15T02:48:41.134Z,1003.01
2022-11-15T02:49:11.342Z,1003.32
2022-11-15T02:49:45.091Z,1003.32
2022-11-15T02:50:17.144Z,1003.11
2022-11-15T02:50:40.657Z,1003.32
2022-11-15T02:51:02.963Z,1003.32
2022-11-15T02:51:37.244Z,1003.32
2022-11-15T02:52:09.042Z,1003.22
2022-11-15T02:52:35.136Z,1003.22
2022-11-15T02:53:12.930Z,1003.11
2022-11-15T02:53:45.728Z,1003.11
2022-11-15T02:54:17.025Z,1003.22
2022-11-15T02:54:39.715Z,1003.11
2022-11-15T02:55:03.553Z,1003.11
2022-11-15T02:55:37.199Z,1003.11
2022-11-15T02:56:10.799Z,1003.22
2022-11-15T02:56:41.457Z,1003.22
2022-11-15T02:57:12.965Z,1003.11
2022-11-15T02:57:45.387Z,1003.11
2022-11-15T02:58:17.923Z,1003.11
2022-11-15T02:58:40.680Z,1003.01
2022-11-15T02:59:04.894Z,1003.01
2022-11-15T02:59:37.707Z,1003.01
2022-11-15T03:00:10.006Z,1003.11
2022-11-15T03:00:42.189Z,1003.11
2022-11-15T03:01:11.733Z,1003.11
2022-11-15T03:01:45.365Z,1003.11
2022-11-15T03:02:17.373Z,1003.11
2022-11-15T03:02:40.025Z,1002.91
2022-11-15T03:03:03.219Z,1002.91
2022-11-15T03:03:37.154Z,1002.91
2022-11-15T03:04:09.362Z,1002.91
2022-11-15T03:04:41.034Z,1002.91
2022-11-15T03:05:11.488Z,1002.91
2022-11-15T03:05:45.096Z,1002.91
2022-11-15T03:06:17.080Z,1003.01
2022-11-15T03:06:39.921Z,1003.11
2022-11-15T03:07:02.480Z,1003.11
2022-11-15T03:07:37.614Z,1003.11
2022-11-15T03:08:09.040Z,1003.01
2022-11-15T03:08:41.015Z,1003.01
2022-11-15T03:09:11.998Z,1003.01
2022-11-15T03:09:45.312Z,1003.01
2022-11-15T03:10:17.897Z,1003.11
2022-11-15T03:10:41.127Z,1003.22
2022-11-15T03:11:03.627Z,1003.22
2022-11-15T03:11:37.130Z,1003.22
2022-11-15T03:12:12.643Z,1003.01
2022-11-15T03:12:41.219Z,1003.01
2022-11-15T03:13:12.189Z,1003.11
2022-11-15T03:13:45.082Z,1003.11
2022-11-15T03:14:18.059Z,1003.11
2022-11-15T03:14:40.772Z,1003.22
2022-11-15T03:15:03.273Z,1003.22
2022-11-15T03:15:38.218Z,1003.22
2022-11-15T03:16:12.528Z,1003.01
2022-11-15T03:16:35.242Z,1003.01
2022-11-15T03:17:15.063Z,1003.11
2022-11-15T03:17:45.003Z,1003.11
2022-11-15T03:18:17.375Z,1003.01
2022-11-15T03:18:39.786Z,1003.01
2022-11-15T03:19:02.203Z,1003.01
2022-11-15T03:19:37.027Z,1003.01
2022-11-15T03:20:09.063Z,1002.91
2022-11-15T03:20:41.237Z,1002.91
2022-11-15T03:21:11.456Z,1003.32
2022-11-15T03:21:45.579Z,1003.32
2022-11-15T03:22:16.961Z,1003.01
2022-11-15T03:22:40.075Z,1003.22
2022-11-15T03:23:02.862Z,1003.22
2022-11-15T03:23:36.986Z,1003.22
2022-11-15T03:24:09.525Z,1002.81
2022-11-15T03:24:40.948Z,1002.81
2022-11-15T03:25:11.367Z,1002.91
2022-11-15T03:25:44.984Z,1002.91
2022-11-15T03:26:17.550Z,1003.11
2022-11-15T03:26:41.636Z,1002.91
2022-11-15T03:27:04.060Z,1002.91
2022-11-15T03:27:37.030Z,1002.91
2022-11-15T03:28:09.095Z,1003.01
2022-11-15T03:28:35.409Z,1003.01
2022-11-15T03:29:11.788Z,1003.32
2022-11-15T03:29:45.116Z,1003.32
2022-11-15T03:30:17.127Z,1003.01
2022-11-15T03:30:39.746Z,1003.22
2022-11-15T03:31:02.385Z,1003.22
2022-11-15T03:31:37.453Z,1003.22
2022-11-15T03:32:09.445Z,1003.01
2022-11-15T03:32:41.157Z,1003.01
2022-11-15T03:33:11.819Z,1003.01
2022-11-15T03:33:45.136Z,1003.01
2022-11-15T03:34:17.556Z,1003.01
2022-11-15T03:34:40.129Z,1003.11
2022-11-15T03:35:02.922Z,1003.11
2022-11-15T03:35:37.467Z,1003.11
2022-11-15T03:36:09.057Z,1002.81
2022-11-15T03:36:47.636Z,1003.11
2022-11-15T03:37:10.037Z,1003.11
2022-11-15T03:37:46.599Z,1003.11
2022-11-15T03:38:17.274Z,1003.01
2022-11-15T03:38:39.869Z,1003.22
2022-11-15T03:39:02.021Z,1003.22
2022-11-15T03:39:37.047Z,1003.22
2022-11-15T03:40:11.464Z,1003.11
2022-11-15T03:40:40.957Z,1003.11
2022-11-15T03:41:12.056Z,1003.22
2022-11-15T03:41:46.548Z,1003.22
2022-11-15T03:42:17.012Z,1003.22
2022-11-15T03:42:40.033Z,1003.01
2022-11-15T03:43:02.327Z,1003.01
2022-11-15T03:43:37.055Z,1003.01
2022-11-15T03:44:09.331Z,1003.11
2022-11-15T03:44:40.938Z,1003.11
2022-11-15T03:45:11.750Z,1003.11
2022-11-15T03:45:45.109Z,1003.11
2022-11-15T03:46:17.306Z,1003.11
2022-11-15T03:46:39.974Z,1003.01
2022-11-15T03:47:05.923Z,1003.01
2022-11-15T03:47:37.491Z,1003.01
2022-11-15T03:48:09.250Z,1003.11
2022-11-15T03:48:40.955Z,1003.11
2022-11-15T03:49:11.465Z,1003.11
2022-11-15T03:49:45.025Z,1003.11
2022-11-15T03:50:17.043Z,1003.11
2022-11-15T03:50:39.890Z,1003.11
2022-11-15T03:51:02.293Z,1003.11
2022-11-15T03:51:37.042Z,1003.11
2022-11-15T03:52:09.110Z,1003.01
2022-11-15T03:52:40.952Z,1003.01
2022-11-15T03:53:11.611Z,1003.11
2022-11-15T03:53:45.018Z,1003.11
2022-11-15T03:54:17.137Z,1003.01
2022-11-15T03:54:40.037Z,1003.01
2022-11-15T03:55:02.342Z,1003.01
2022-11-15T03:55:37.064Z,1003.01
2022-11-15T03:56:09.128Z,1003.01
2022-11-15T03:56:40.913Z,1003.01
2022-11-15T03:57:11.386Z,1003.01
2022-11-15T03:57:45.080Z,1003.01
2022-11-15T03:58:17.039Z,1003.11
2022-11-15T03:58:40.342Z,1003.11
2022-11-15T03:59:02.949Z,1003.11
2022-11-15T03:59:37.140Z,1003.11
2022-11-15T04:00:09.704Z,1003.22
2022-11-15T04:00:40.997Z,1003.22
2022-11-15T04:01:11.686Z,1003.11
2022-11-15T04:01:44.912Z,1003.11
2022-11-15T04:02:17.036Z,1003.32
2022-11-15T04:02:39.961Z,1003.01
2022-11-15T04:03:02.113Z,1003.01
2022-11-15T04:03:37.403Z,1003.01
2022-11-15T04:04:08.908Z,1003.11
2022-11-15T04:04:41.018Z,1003.11
2022-11-15T04:05:11.329Z,1003.11
2022-11-15T04:05:45.512Z,1003.11
2022-11-15T04:06:16.967Z,1003.01
2022-11-15T04:06:39.764Z,1003.11
2022-11-15T04:07:02.111Z,1003.11
2022-11-15T04:07:37.188Z,1003.11
2022-11-15T04:08:08.940Z,1002.91
2022-11-15T04:08:41.072Z,1002.91
2022-11-15T04:09:11.348Z,1003.01
2022-11-15T04:09:44.983Z,1003.01
2022-11-15T04:10:16.940Z,1003.11
2022-11-15T04:10:39.659Z,1002.91
2022-11-15T04:11:02.571Z,1002.91
2022-11-15T04:11:37.159Z,1002.91
2022-11-15T04:12:08.918Z,1002.91
2022-11-15T04:12:41.036Z,1002.91
2022-11-15T04:13:11.732Z,1003.11
2022-11-15T04:13:44.954Z,1003.11
2022-11-15T04:14:17.138Z,1002.81
2022-11-15T04:14:40.646Z,1002.91
2022-11-15T04:15:03.136Z,1002.91
2022-11-15T04:15:37.029Z,1002.91
2022-11-15T04:16:09.297Z,1002.91
2022-11-15T04:16:43.857Z,1002.91
2022-11-15T04:17:11.497Z,1002.81
2022-11-15T04:17:45.031Z,1002.81
2022-11-15T04:18:16.888Z,1002.91
2022-11-15T04:18:39.625Z,1002.81
2022-11-15T04:19:02.023Z,1002.81
2022-11-15T04:19:37.011Z,1002.81
2022-11-15T04:20:08.924Z,1003.11
2022-11-15T04:20:41.038Z,1003.11
2022-11-15T04:21:11.472Z,1003.01
2022-11-15T04:21:45.206Z,1003.01
2022-11-15T04:22:16.998Z,1003.11
2022-11-15T04:22:39.914Z,1002.91
2022-11-15T04:23:02.366Z,1002.91
2022-11-15T04:23:37.024Z,1002.91
2022-11-15T04:24:09.064Z,1002.91
2022-11-15T04:24:40.991Z,1002.91
2022-11-15T04:25:12.905Z,1002.91
2022-11-15T04:25:45.024Z,1002.91
2022-11-15T04:26:17.135Z,1002.91
2022-11-15T04:26:41.732Z,1002.91
2022-11-15T04:27:03.975Z,1002.91
2022-11-15T04:27:37.250Z,1002.91
2022-11-15T04:28:08.940Z,1003.01
2022-11-15T04:28:41.011Z,1003.01
2022-11-15T04:29:11.384Z,1003.01
2022-11-15T04:29:44.981Z,1003.01
2022-11-15T04:30:17.123Z,1003.11
2022-11-15T04:30:40.610Z,1002.91
2022-11-15T04:31:03.101Z,1002.91
2022-11-15T04:31:36.969Z,1002.91
2022-11-15T04:32:09.538Z,1003.01
2022-11-15T04:32:42.419Z,1003.01
2022-11-15T04:33:11.558Z,1002.71
2022-11-15T04:33:44.915Z,1002.71
2022-11-15T04:34:17.027Z,1003.11
2022-11-15T04:34:39.858Z,1003.11
2022-11-15T04:35:02.263Z,1003.11
2022-11-15T04:35:37.545Z,1003.11
2022-11-15T04:36:08.923Z,1003.01
2022-11-15T04:36:42.629Z,1003.01
2022-11-15T04:37:11.706Z,1003.01
2022-11-15T04:37:49.150Z,1003.01
2022-11-15T04:38:17.049Z,1003.11
2022-11-15T04:38:40.798Z,1003.11
2022-11-15T04:39:03.408Z,1003.11
2022-11-15T04:39:37.093Z,1003.11
2022-11-15T04:40:09.054Z,1003.11
2022-11-15T04:40:41.067Z,1003.11
2022-11-15T04:41:11.394Z,1002.91
2022-11-15T04:41:45.181Z,1002.91
2022-11-15T04:42:16.928Z,1002.71
2022-11-15T04:42:40.389Z,1003.11
2022-11-15T04:43:04.053Z,1003.11
2022-11-15T04:43:37.064Z,1003.11
2022-11-15T04:44:09.517Z,1003.11
2022-11-15T04:44:41.057Z,1003.11
2022-11-15T04:45:11.456Z,1002.81
2022-11-15T04:45:45.174Z,1002.81
2022-11-15T04:46:16.866Z,1003.01
2022-11-15T04:46:39.645Z,1003.11
2022-11-15T04:47:02.159Z,1003.11
2022-11-15T04:47:37.117Z,1003.11
2022-11-15T04:48:09.263Z,1003.11
2022-11-15T04:48:40.892Z,1003.11
2022-11-15T04:49:11.329Z,1003.11
2022-11-15T04:49:45.086Z,1003.11
2022-11-15T04:50:17.217Z,1003.11
2022-11-15T04:50:39.955Z,1003.11
2022-11-15T04:51:03.820Z,1003.11
2022-11-15T04:51:36.938Z,1003.11
2022-11-15T04:52:08.977Z,1003.01
2022-11-15T04:52:40.938Z,1003.01
2022-11-15T04:53:11.585Z,1003.01
2022-11-15T04:53:45.026Z,1003.01
2022-11-15T04:54:17.088Z,1003.11
2022-11-15T04:54:40.270Z,1003.01
2022-11-15T04:55:07.988Z,1003.01
2022-11-15T04:55:37.213Z,1003.01
2022-11-15T04:56:08.983Z,1002.91
2022-11-15T04:56:41.051Z,1002.91
2022-11-15T04:57:11.621Z,1003.01
2022-11-15T04:57:45.159Z,1003.01
2022-11-15T04:58:16.884Z,1003.22
2022-11-15T04:58:40.107Z,1002.91
2022-11-15T04:59:02.415Z,1002.91
2022-11-15T04:59:40.371Z,1002.91
2022-11-15T05:00:09.809Z,1002.81
2022-11-15T05:00:41.109Z,1002.81
2022-11-15T05:01:11.428Z,1003.11
2022-11-15T05:01:45.323Z,1003.11
2022-11-15T05:02:17.007Z,1003.01
2022-11-15T05:02:39.908Z,1003.01
2022-11-15T05:03:02.540Z,1003.01
2022-11-15T05:03:36.998Z,1003.01
2022-11-15T05:04:09.134Z,1003.11
2022-11-15T05:04:40.909Z,1003.11
2022-11-15T05:05:11.515Z,1003.01
2022-11-15T05:05:44.927Z,1003.01
2022-11-15T05:06:17.287Z,1003.01
2022-11-15T05:06:40.627Z,1002.91
2022-11-15T05:07:03.083Z,1002.91
2022-11-15T05:07:37.079Z,1002.91
2022-11-15T05:08:09.050Z,1003.01
2022-11-15T05:08:41.054Z,1003.01
2022-11-15T05:09:11.344Z,1002.81
2022-11-15T05:09:44.932Z,1002.81
2022-11-15T05:10:16.925Z,1002.91
2022-11-15T05:10:39.651Z,1002.91
2022-11-15T05:11:02.189Z,1002.91
2022-11-15T05:11:37.028Z,1002.91
2022-11-15T05:12:08.960Z,1003.01
2022-11-15T05:12:41.008Z,1003.01
2022-11-15T05:13:11.485Z,1003.01
2022-11-15T05:13:45.147Z,1003.01
2022-11-15T05:14:17.046Z,1003.01
2022-11-15T05:14:39.773Z,1002.91
2022-11-15T05:15:02.257Z,1002.91
2022-11-15T05:15:37.554Z,1002.91
2022-11-15T05:16:09.105Z,1003.01
2022-11-15T05:16:40.899Z,1003.01
2022-11-15T05:17:11.365Z,1002.81
2022-11-15T05:17:45.042Z,1002.81
2022-11-15T05:18:22.141Z,1002.91
2022-11-15T05:18:40.870Z,1003.22
2022-11-15T05:19:03.216Z,1003.22
2022-11-15T05:19:37.436Z,1003.22
2022-11-15T05:20:09.302Z,1003.01
2022-11-15T05:20:40.984Z,1003.01
2022-11-15T05:21:11.354Z,1002.91
2022-11-15T05:21:44.938Z,1002.91
2022-11-15T05:22:17.273Z,1002.91
2022-11-15T05:22:40.520Z,1003.01
2022-11-15T05:23:03.095Z,1003.01
2022-11-15T05:23:36.892Z,1003.01
2022-11-15T05:24:08.939Z,1002.91
2022-11-15T05:24:40.866Z,1002.91
2022-11-15T05:25:12.920Z,1002.91
2022-11-15T05:25:45.119Z,1002.91
2022-11-15T05:26:17.029Z,1002.81
2022-11-15T05:26:39.740Z,1002.91
2022-11-15T05:27:02.344Z,1002.91
2022-11-15T05:27:37.144Z,1002.91
2022-11-15T05:28:08.911Z,1003.01
2022-11-15T05:28:40.981Z,1003.01
2022-11-15T05:29:11.572Z,1003.01
2022-11-15T05:29:44.956Z,1003.01
2022-11-15T05:30:17.035Z,1003.01
2022-11-15T05:30:39.672Z,1002.81
2022-11-15T05:31:01.981Z,1002.81
2022-11-15T05:31:37.060Z,1002.81
2022-11-15T05:32:09.101Z,1003.01
2022-11-15T05:32:40.982Z,1003.01
2022-11-15T05:33:11.492Z,1002.91
2022-11-15T05:33:44.867Z,1002.91
2022-11-15T05:34:16.871Z,1002.91
2022-11-15T05:34:39.710Z,1002.91
2022-11-15T05:35:02.244Z,1002.91
2022-11-15T05:35:36.933Z,1002.91
2022-11-15T05:36:08.904Z,1003.01
2022-11-15T05:36:50.335Z,1003.01
2022-11-15T05:37:07.729Z,1002.81
2022-11-15T05:37:45.402Z,1002.81
2022-11-15T05:38:21.623Z,1002.71
2022-11-15T05:38:40.858Z,1002.71
2022-11-15T05:39:03.267Z,1002.71
2022-11-15T05:39:38.239Z,1002.71
2022-11-15T05:40:09.227Z,1002.81
2022-11-15T05:40:42.252Z,1002.81
2022-11-15T05:41:12.191Z,1002.71
2022-11-15T05:41:44.842Z,1002.71
2022-11-15T05:42:19.428Z,1002.91
2022-11-15T05:42:40.875Z,1002.71
2022-11-15T05:43:03.621Z,1002.71
2022-11-15T05:43:37.108Z,1002.71
2022-11-15T05:44:09.337Z,1002.91
2022-11-15T05:44:41.737Z,1002.91
2022-11-15T05:45:12.032Z,1002.64
2022-11-15T05:45:45.647Z,1002.64
2022-11-15T05:46:17.469Z,1002.81
2022-11-15T05:46:40.192Z,1002.71
2022-11-15T05:47:03.692Z,1002.71
2022-11-15T05:47:37.813Z,1002.71
2022-11-15T05:48:09.388Z,1002.91
2022-11-15T05:48:40.903Z,1002.91
2022-11-15T05:49:11.397Z,1002.64
2022-11-15T05:49:45.016Z,1002.64
2022-11-15T05:50:17.088Z,1002.71
2022-11-15T05:50:39.756Z,1002.71
2022-11-15T05:51:03.320Z,1002.71
2022-11-15T05:51:37.926Z,1002.71
2022-11-15T05:52:10.204Z,1002.81
2022-11-15T05:52:41.167Z,1002.81
2022-11-15T05:53:11.945Z,1002.64
2022-11-15T05:53:44.957Z,1002.64
2022-11-15T05:54:16.943Z,1002.64
2022-11-15T05:54:39.667Z,1002.71
2022-11-15T05:55:02.102Z,1002.71
2022-11-15T05:55:37.517Z,1002.71
2022-11-15T05:56:09.408Z,1002.64
2022-11-15T05:56:41.378Z,1002.64
2022-11-15T05:57:11.432Z,1002.71
2022-11-15T05:57:45.362Z,1002.71
2022-11-15T05:58:17.484Z,1002.71
2022-11-15T05:58:40.256Z,1002.71
2022-11-15T05:59:03.328Z,1002.71
2022-11-15T05:59:37.445Z,1002.71
2022-11-15T06:00:10.093Z,1002.64
2022-11-15T06:00:40.998Z,1002.64
2022-11-15T06:01:11.659Z,1002.91
2022-11-15T06:01:45.213Z,1002.91
2022-11-15T06:02:17.527Z,1002.71
2022-11-15T06:02:40.169Z,1002.64
2022-11-15T06:03:04.550Z,1002.64
2022-11-15T06:03:37.451Z,1002.64
2022-11-15T06:04:09.050Z,1002.81
2022-11-15T06:04:41.568Z,1002.81
2022-11-15T06:05:11.598Z,1002.64